createdAt,value
2023-04-23T00:01:25.836Z,99786.00
2023-04-23T00:03:54.140Z,99781.41
2023-04-23T00:06:23.672Z,99781.63
2023-04-23T00:08:52.474Z,99783.53
2023-04-23T00:11:21.269Z,99784.81
2023-04-23T00:13:49.855Z,99783.19
2023-04-23T00:16:19.742Z,99787.72
2023-04-23T00:18:47.846Z,99785.03
2023-04-23T00:21:15.867Z,99779.88
2023-04-23T00:23:45.412Z,99779.06
2023-04-23T00:26:13.436Z,99777.41
2023-04-23T00:28:41.364Z,99775.75
2023-04-23T00:31:09.357Z,99781.16
2023-04-23T00:33:37.490Z,99779.53
2023-04-23T00:36:05.777Z,99780.56
2023-04-23T00:38:33.784Z,99782.78
2023-04-23T00:41:03.148Z,99781.16
2023-04-23T00:43:31.149Z,99783.84
2023-04-23T00:45:59.207Z,99784.94
2023-04-23T00:48:27.210Z,99788.44
2023-04-23T00:51:00.426Z,99785.75
2023-04-23T00:53:28.366Z,99787.63
2023-04-23T00:55:56.359Z,99789.47
2023-04-23T00:58:25.722Z,99785.97
2023-04-23T01:00:53.718Z,99791.38
2023-04-23T01:03:22.855Z,99793.25
2023-04-23T01:05:50.958Z,99788.06
2023-04-23T01:08:19.261Z,99785.59
2023-04-23T01:10:47.273Z,99787.50
2023-04-23T01:13:15.598Z,99792.28
2023-04-23T01:15:45.373Z,99785.00
2023-04-23T01:18:13.759Z,99783.38
2023-04-23T01:20:43.296Z,99788.78
2023-04-23T01:23:12.873Z,99787.09
2023-04-23T01:25:40.819Z,99787.09
2023-04-23T01:28:08.673Z,99787.34
2023-04-23T01:30:36.786Z,99792.16
2023-04-23T01:33:04.933Z,99786.75
2023-04-23T01:35:33.346Z,99787.78
2023-04-23T01:38:01.652Z,99785.94
2023-04-23T01:40:31.015Z,99788.84
2023-04-23T01:42:58.933Z,99797.78
2023-04-23T01:45:26.924Z,99793.19
2023-04-23T01:47:54.981Z,99790.50
2023-04-23T01:50:24.587Z,99795.91
2023-04-23T01:52:52.563Z,99785.09
2023-04-23T01:55:20.884Z,99790.50
2023-04-23T01:57:51.246Z,99785.09
2023-04-23T02:00:20.732Z,99783.25
2023-04-23T02:02:49.081Z,99782.63
2023-04-23T02:05:18.614Z,99784.28
2023-04-23T02:07:46.807Z,99781.81
2023-04-23T02:10:14.904Z,99786.16
2023-04-23T02:12:42.876Z,99785.56
2023-04-23T02:15:12.581Z,99790.38
2023-04-23T02:17:40.811Z,99786.84
2023-04-23T02:20:09.816Z,99777.94
2023-04-23T02:22:38.029Z,99788.97
2023-04-23T02:25:07.134Z,99782.72
2023-04-23T02:27:35.119Z,99781.09
2023-04-23T02:30:03.654Z,99784.84
2023-04-23T02:32:33.079Z,99787.75
2023-04-23T02:35:02.181Z,99780.72
2023-04-23T02:37:30.142Z,99785.28
2023-04-23T02:39:58.078Z,99778.25
2023-04-23T02:42:26.095Z,99782.84
2023-04-23T02:44:54.114Z,99773.06
2023-04-23T02:47:22.128Z,99786.56
2023-04-23T02:49:51.603Z,99780.94
2023-04-23T02:52:19.509Z,99774.72
2023-04-23T02:54:47.498Z,99775.78
2023-04-23T02:57:16.552Z,99772.84
2023-04-23T02:59:44.648Z,99768.53
2023-04-23T03:02:12.771Z,99772.84
2023-04-23T03:04:41.487Z,99772.03
2023-04-23T03:07:13.396Z,99767.47
2023-04-23T03:09:42.363Z,99773.66
2023-04-23T03:12:10.313Z,99763.13
2023-04-23T03:14:38.300Z,99763.13
2023-04-23T03:17:06.481Z,99765.19
2023-04-23T03:19:34.445Z,99765.41
2023-04-23T03:22:05.579Z,99766.69
2023-04-23T03:24:35.476Z,99767.75
2023-04-23T03:27:03.405Z,99765.88
2023-04-23T03:29:31.368Z,99766.34
2023-04-23T03:31:59.347Z,99765.50
2023-04-23T03:34:27.321Z,99773.81
2023-04-23T03:36:55.391Z,99769.25
2023-04-23T03:39:23.446Z,99775.69
2023-04-23T03:41:52.877Z,99769.69
2023-04-23T03:44:21.319Z,99762.69
2023-04-23T03:46:49.259Z,99768.88
2023-04-23T03:49:17.215Z,99769.94
2023-04-23T03:51:45.192Z,99768.88
2023-04-23T03:54:13.153Z,99770.78
2023-04-23T03:56:41.182Z,99763.28
2023-04-23T03:59:10.785Z,99762.22
2023-04-23T04:01:38.749Z,99766.53
2023-04-23T04:04:06.865Z,99763.84
2023-04-23T04:06:35.044Z,99768.44
2023-04-23T04:09:02.956Z,99763.84
2023-04-23T04:11:30.900Z,99767.59
2023-04-23T04:13:58.905Z,99763.03
2023-04-23T04:16:28.296Z,99763.28
2023-04-23T04:18:56.710Z,99762.06
2023-04-23T04:21:24.787Z,99765.59
2023-04-23T04:23:53.694Z,99766.66
2023-04-23T04:26:21.650Z,99768.53
2023-04-23T04:28:49.690Z,99773.94
2023-04-23T04:31:17.962Z,99772.88
2023-04-23T04:33:47.444Z,99770.16
2023-04-23T04:36:15.680Z,99776.38
2023-04-23T04:38:44.049Z,99783.44
2023-04-23T04:41:13.298Z,99785.91
2023-04-23T04:43:43.729Z,99785.91
2023-04-23T04:46:12.252Z,99789.19
2023-04-23T04:48:40.239Z,99788.13
2023-04-23T04:51:09.752Z,99788.75
2023-04-23T04:53:37.689Z,99785.22
2023-04-23T04:56:06.058Z,99783.34
2023-04-23T04:58:33.955Z,99783.13
2023-04-23T05:01:02.103Z,99788.28
2023-04-23T05:03:30.349Z,99782.88
2023-04-23T05:05:59.379Z,99777.47
2023-04-23T05:08:28.814Z,99788.06
2023-04-23T05:10:56.847Z,99783.72
2023-04-23T05:13:24.868Z,99785.56
2023-04-23T05:15:52.801Z,99782.88
2023-04-23T05:18:21.215Z,99782.31
2023-04-23T05:20:49.221Z,99776.31
2023-04-23T05:23:17.319Z,99781.69
2023-04-23T05:25:46.766Z,99782.72
2023-04-23T05:28:15.510Z,99778.41
2023-04-23T05:30:43.537Z,99779.22
2023-04-23T05:33:12.570Z,99783.78
2023-04-23T05:35:40.711Z,99789.19
2023-04-23T05:38:08.671Z,99782.16
2023-04-23T05:40:36.689Z,99784.25
2023-04-23T05:43:06.148Z,99792.97
2023-04-23T05:45:34.121Z,99784.00
2023-04-23T05:48:02.193Z,99787.56
2023-04-23T05:50:30.308Z,99787.56
2023-04-23T05:52:58.239Z,99793.53
2023-04-23T05:55:26.270Z,99790.84
2023-04-23T05:57:54.306Z,99779.22
2023-04-23T06:00:23.731Z,99779.81
2023-04-23T06:02:52.060Z,99781.47
2023-04-23T06:05:20.257Z,99785.00
2023-04-23T06:07:48.484Z,99788.28
2023-04-23T06:10:16.483Z,99788.28
2023-04-23T06:12:44.419Z,99781.84
2023-04-23T06:15:12.705Z,99781.84
2023-04-23T06:17:42.143Z,99788.88
2023-04-23T06:20:12.000Z,99783.47
2023-04-23T06:22:40.100Z,99786.19
2023-04-23T06:25:08.779Z,99782.88
2023-04-23T06:27:36.761Z,99786.63
2023-04-23T06:30:05.344Z,99786.63
2023-04-23T06:32:33.434Z,99782.31
2023-04-23T06:35:02.979Z,99780.63
2023-04-23T06:37:32.405Z,99786.63
2023-04-23T06:40:00.449Z,99774.22
2023-04-23T06:42:28.458Z,99780.44
2023-04-23T06:44:56.580Z,99780.19
2023-04-23T06:47:24.604Z,99772.06
2023-04-23T06:49:52.628Z,99774.78
2023-04-23T06:52:21.991Z,99772.06
2023-04-23T06:54:50.236Z,99774.56
2023-04-23T06:57:18.358Z,99781.38
2023-04-23T06:59:46.337Z,99772.84
2023-04-23T07:02:14.390Z,99777.44
2023-04-23T07:04:42.588Z,99774.56
2023-04-23T07:07:10.819Z,99774.34
2023-04-23T07:09:40.380Z,99777.88
2023-04-23T07:12:09.094Z,99786.56
2023-04-23T07:14:37.080Z,99771.78
2023-04-23T07:17:05.069Z,99779.44
2023-04-23T07:19:33.040Z,99771.09
2023-04-23T07:22:01.111Z,99777.31
2023-04-23T07:24:29.055Z,99777.94
2023-04-23T07:26:59.237Z,99775.00
2023-04-23T07:29:27.254Z,99772.06
2023-04-23T07:31:55.384Z,99776.44
2023-04-23T07:34:23.403Z,99767.25
2023-04-23T07:36:52.213Z,99765.16
2023-04-23T07:39:20.170Z,99762.47
2023-04-23T07:41:48.192Z,99766.78
2023-04-23T07:44:17.612Z,99765.97
2023-04-23T07:46:45.627Z,99767.63
2023-04-23T07:49:13.648Z,99766.78
2023-04-23T07:51:41.743Z,99765.75
2023-04-23T07:54:09.817Z,99762.22
2023-04-23T07:56:37.852Z,99762.22
2023-04-23T07:59:06.068Z,99769.03
2023-04-23T08:01:35.435Z,99768.00
2023-04-23T08:04:04.009Z,99760.50
2023-04-23T08:06:35.158Z,99769.63
2023-04-23T08:09:06.386Z,99761.31
2023-04-23T08:11:34.466Z,99764.59
2023-04-23T08:14:02.725Z,99770.81
2023-04-23T08:16:31.270Z,99765.41
2023-04-23T08:21:32.632Z,99765.41
2023-04-23T08:24:01.508Z,99764.13
2023-04-23T08:26:29.506Z,99759.78
2023-04-23T08:28:57.639Z,99758.75
2023-04-23T08:31:27.231Z,99747.13
2023-04-23T08:33:55.558Z,99751.19
2023-04-23T08:36:25.591Z,99753.69
2023-04-23T08:38:53.640Z,99751.59
2023-04-23T08:41:23.792Z,99749.47
2023-04-23T08:43:53.143Z,99749.81
2023-04-23T08:46:21.217Z,99752.53
2023-04-23T08:48:49.308Z,99738.81
2023-04-23T08:51:19.259Z,99746.44
2023-04-23T08:53:49.270Z,99739.75
2023-04-23T08:56:17.281Z,99741.38
2023-04-23T08:58:45.349Z,99740.56
2023-04-23T09:01:13.247Z,99736.19
2023-04-23T09:03:41.365Z,99743.84
2023-04-23T09:06:09.553Z,99737.59
2023-04-23T09:08:37.591Z,99739.03
2023-04-23T09:11:07.171Z,99734.47
2023-04-23T09:13:35.262Z,99737.97
2023-04-23T09:16:03.293Z,99732.13
2023-04-23T09:18:31.253Z,99731.03
2023-04-23T09:20:59.196Z,99731.63
2023-04-23T09:23:27.231Z,99728.94
2023-04-23T09:25:55.184Z,99727.06
2023-04-23T09:28:27.049Z,99722.50
2023-04-23T09:30:54.961Z,99716.25
2023-04-23T09:33:23.041Z,99719.78
2023-04-23T09:35:52.230Z,99716.03
2023-04-23T09:38:20.889Z,99705.81
2023-04-23T09:40:48.965Z,99706.03
2023-04-23T09:43:16.990Z,99713.91
2023-04-23T09:45:52.580Z,99705.81
2023-04-23T09:48:20.650Z,99703.66
2023-04-23T09:50:48.689Z,99698.25
2023-04-23T09:53:16.704Z,99693.72
2023-04-23T09:55:44.961Z,99697.22
2023-04-23T09:58:13.591Z,99696.97
2023-04-23T10:00:41.620Z,99692.41
2023-04-23T10:03:12.049Z,99682.41
2023-04-23T10:08:13.411Z,99678.44
2023-04-23T10:10:55.172Z,99672.78
2023-04-23T10:13:29.369Z,99668.81
2023-04-23T10:16:07.249Z,99675.97
2023-04-23T10:18:43.469Z,99665.03
2023-04-23T10:21:11.404Z,99669.84
2023-04-23T10:23:39.380Z,99663.00
2023-04-23T10:26:07.646Z,99666.38
2023-04-23T10:28:35.605Z,99666.72
2023-04-23T10:31:04.030Z,99657.78
2023-04-23T10:33:39.940Z,99655.69
2023-04-23T10:36:15.279Z,99660.09
2023-04-23T10:38:51.344Z,99651.06
2023-04-23T10:41:26.687Z,99653.75
2023-04-23T10:43:54.673Z,99652.59
2023-04-23T10:46:31.878Z,99650.94
2023-04-23T10:49:09.955Z,99638.00
2023-04-23T10:54:11.221Z,99631.91
2023-04-23T10:56:40.120Z,99630.75
2023-04-23T10:59:09.315Z,99637.81
2023-04-23T11:01:37.307Z,99625.34
2023-04-23T11:04:24.459Z,99626.16
2023-04-23T11:06:56.458Z,99622.03
2023-04-23T11:09:40.964Z,99622.91
2023-04-23T11:12:10.604Z,99621.50
2023-04-23T11:14:42.988Z,99617.94
2023-04-23T11:17:12.766Z,99621.22
2023-04-23T11:19:41.310Z,99622.03
2023-04-23T11:22:14.689Z,99610.41
2023-04-23T11:24:45.119Z,99610.69
2023-04-23T11:27:13.665Z,99613.84
2023-04-23T11:29:42.926Z,99613.84
2023-04-23T11:32:13.083Z,99615.97
2023-04-23T11:34:41.921Z,99605.16
2023-04-23T11:37:11.301Z,99608.91
2023-04-23T11:39:42.240Z,99607.63
2023-04-23T11:42:11.485Z,99596.56
2023-04-23T11:44:39.762Z,99607.38
2023-04-23T11:47:08.430Z,99601.97
2023-04-23T11:49:37.880Z,99587.88
2023-04-23T11:52:05.971Z,99593.28
2023-04-23T11:54:34.483Z,99585.16
2023-04-23T11:57:04.570Z,99580.34
2023-04-23T11:59:32.806Z,99589.28
2023-04-23T12:02:01.115Z,99584.69
2023-04-23T12:04:29.745Z,99572.22
2023-04-23T12:06:58.383Z,99576.34
2023-04-23T12:09:27.456Z,99581.75
2023-04-23T12:11:55.687Z,99578.22
2023-04-23T12:14:29.526Z,99565.75
2023-04-23T12:16:57.877Z,99573.88
2023-04-23T12:19:28.329Z,99568.72
2023-04-23T12:21:57.048Z,99566.00
2023-04-23T12:24:26.282Z,99561.41
2023-04-23T12:26:56.063Z,99561.75
2023-04-23T12:29:24.293Z,99560.94
2023-04-23T12:31:54.081Z,99552.81
2023-04-23T12:34:22.270Z,99555.28
2023-04-23T12:36:51.152Z,99548.81
2023-04-23T12:39:29.515Z,99553.16
2023-04-23T12:42:00.010Z,99537.19
2023-04-23T12:44:28.034Z,99537.19
2023-04-23T12:46:58.215Z,99525.56
2023-04-23T12:49:27.217Z,99530.13
2023-04-23T12:51:57.670Z,99534.47
2023-04-23T12:54:26.783Z,99530.13
2023-04-23T12:56:54.886Z,99525.78
2023-04-23T12:59:22.848Z,99523.06
2023-04-23T13:01:51.705Z,99529.31
2023-04-23T13:04:21.381Z,99527.41
2023-04-23T13:06:49.427Z,99522.59
2023-04-23T13:09:17.566Z,99519.66
2023-04-23T13:11:47.010Z,99512.34
2023-04-23T13:14:15.081Z,99503.44
2023-04-23T13:16:43.216Z,99504.25
2023-04-23T13:19:13.078Z,99496.94
2023-04-23T13:21:42.545Z,99501.53
2023-04-23T13:24:10.916Z,99497.75
2023-04-23T13:26:39.094Z,99504.56
2023-04-23T13:29:07.221Z,99501.03
2023-04-23T13:31:35.266Z,99494.31
2023-04-23T13:34:03.874Z,99491.38
2023-04-23T13:36:31.972Z,99486.38
2023-04-23T13:39:01.335Z,99492.44
2023-04-23T13:41:29.308Z,99494.22
2023-04-23T13:43:57.216Z,99486.03
2023-04-23T13:46:27.650Z,99480.53
2023-04-23T13:48:57.852Z,99478.53
2023-04-23T13:51:34.880Z,99472.00
2023-04-23T13:54:05.780Z,99470.81
2023-04-23T13:56:33.689Z,99472.34
2023-04-23T13:59:18.427Z,99476.94
2023-04-23T14:01:50.017Z,99477.88
2023-04-23T14:04:18.614Z,99462.41
2023-04-23T14:06:46.709Z,99470.97
2023-04-23T14:09:16.115Z,99473.09
2023-04-23T14:11:44.349Z,99466.06
2023-04-23T14:14:12.276Z,99467.97
2023-04-23T14:16:40.313Z,99466.28
2023-04-23T14:19:08.300Z,99464.44
2023-04-23T14:21:36.500Z,99459.25
2023-04-23T14:24:09.736Z,99454.94
2023-04-23T14:26:48.819Z,99453.28
2023-04-23T14:29:24.294Z,99438.72
2023-04-23T14:31:51.983Z,99451.16
2023-04-23T14:34:20.064Z,99453.63
2023-04-23T14:36:49.230Z,99447.38
2023-04-23T14:39:17.674Z,99450.19
2023-04-23T14:41:47.200Z,99445.16
2023-04-23T14:44:15.237Z,99443.84
2023-04-23T14:46:43.210Z,99439.56
2023-04-23T14:49:11.667Z,99446.28
2023-04-23T14:51:39.897Z,99440.69
2023-04-23T14:54:07.949Z,99440.56
2023-04-23T14:56:37.224Z,99440.16
2023-04-23T14:59:06.592Z,99439.16
2023-04-23T15:01:34.637Z,99434.44
2023-04-23T15:04:02.697Z,99438.03
2023-04-23T15:06:30.915Z,99434.09
2023-04-23T15:08:58.866Z,99443.34
2023-04-23T15:11:26.859Z,99436.41
2023-04-23T15:13:57.937Z,99445.63
2023-04-23T15:16:46.891Z,99438.69
2023-04-23T15:19:18.079Z,99442.81
2023-04-23T15:21:46.504Z,99437.97
2023-04-23T15:24:14.508Z,99440.19
2023-04-23T15:26:42.524Z,99433.69
2023-04-23T15:29:10.682Z,99429.69
2023-04-23T15:31:40.195Z,99424.25
2023-04-23T15:34:09.701Z,99429.94
2023-04-23T15:36:39.368Z,99424.75
2023-04-23T15:39:07.725Z,99433.97
2023-04-23T15:41:39.398Z,99427.97
2023-04-23T15:44:10.954Z,99421.97
2023-04-23T15:46:40.734Z,99417.38
2023-04-23T15:49:08.952Z,99415.53
2023-04-23T15:51:37.002Z,99409.53
2023-04-23T15:54:08.038Z,99416.56
2023-04-23T15:56:36.712Z,99407.41
2023-04-23T15:59:04.680Z,99403.31
2023-04-23T16:01:32.738Z,99406.22
2023-04-23T16:04:10.262Z,99402.34
2023-04-23T16:06:39.385Z,99410.16
2023-04-23T16:09:08.494Z,99416.88
2023-04-23T16:11:36.958Z,99410.34
2023-04-23T16:14:05.058Z,99414.09
2023-04-23T16:16:33.078Z,99410.00
2023-04-23T16:19:03.320Z,99406.72
2023-04-23T16:21:32.044Z,99408.88
2023-04-23T16:24:00.171Z,99402.63
2023-04-23T16:26:29.025Z,99404.78
2023-04-23T16:29:16.561Z,99404.19
2023-04-23T16:31:45.362Z,99405.28
2023-04-23T16:34:14.784Z,99402.00
2023-04-23T16:36:43.022Z,99401.16
2023-04-23T16:39:11.464Z,99400.91
2023-04-23T16:41:39.637Z,99402.00
2023-04-23T16:44:07.712Z,99401.16
2023-04-23T16:46:35.755Z,99401.16
2023-04-23T16:49:03.757Z,99396.00
2023-04-23T16:51:33.242Z,99399.78
2023-04-23T16:54:01.236Z,99389.19
2023-04-23T16:56:29.267Z,99393.78
2023-04-23T16:58:57.841Z,99398.38
2023-04-23T17:01:25.900Z,99396.50
2023-04-23T17:03:54.131Z,99408.94
2023-04-23T17:06:27.139Z,99400.25
2023-04-23T17:08:57.737Z,99403.78
2023-04-23T17:11:25.899Z,99410.00
2023-04-23T17:13:54.058Z,99404.03
2023-04-23T17:16:22.035Z,99406.72
2023-04-23T17:18:50.163Z,99400.75
2023-04-23T17:21:18.196Z,99400.75
2023-04-23T17:23:46.459Z,99398.03
2023-04-23T17:26:15.826Z,99405.59
2023-04-23T17:28:43.767Z,99403.72
2023-04-23T17:31:11.795Z,99403.72
2023-04-23T17:33:39.876Z,99402.06
2023-04-23T17:36:07.901Z,99405.59
2023-04-23T17:38:35.912Z,99408.31
2023-04-23T17:41:04.064Z,99403.94
2023-04-23T17:43:35.070Z,99406.91
2023-04-23T17:46:03.420Z,99404.19
2023-04-23T17:48:31.527Z,99406.06
2023-04-23T17:50:59.518Z,99413.13
2023-04-23T17:53:27.570Z,99408.75
2023-04-23T17:55:59.618Z,99416.06
2023-04-23T17:58:27.617Z,99409.03
2023-04-23T18:00:57.242Z,99408.22
2023-04-23T18:03:26.716Z,99409.84
2023-04-23T18:05:55.216Z,99411.72
2023-04-23T18:08:23.223Z,99414.44
2023-04-23T18:10:51.313Z,99414.44
2023-04-23T18:13:19.323Z,99419.84
2023-04-23T18:15:49.986Z,99422.78
2023-04-23T18:18:21.613Z,99422.78
2023-04-23T18:20:52.185Z,99421.97
2023-04-23T18:23:22.189Z,99431.97
2023-04-23T18:25:50.329Z,99426.56
2023-04-23T18:28:18.318Z,99424.91
2023-04-23T18:30:46.331Z,99430.31
2023-04-23T18:33:26.813Z,99427.59
2023-04-23T18:35:58.470Z,99430.31
2023-04-23T18:38:27.009Z,99431.38
2023-04-23T18:40:55.177Z,99428.69
2023-04-23T18:43:23.177Z,99441.13
2023-04-23T18:45:51.431Z,99443.81
2023-04-23T18:48:42.234Z,99441.13
2023-04-23T18:51:21.375Z,99439.25
2023-04-23T18:53:49.573Z,99424.91
2023-04-23T18:56:17.659Z,99429.25
2023-04-23T18:58:45.691Z,99425.97
2023-04-23T19:01:13.754Z,99430.31
2023-04-23T19:03:43.288Z,99433.00
2023-04-23T19:06:11.330Z,99442.78
2023-04-23T19:08:39.380Z,99434.66
2023-04-23T19:11:08.802Z,99440.06
2023-04-23T19:13:36.847Z,99433.84
2023-04-23T19:16:05.038Z,99441.97
2023-04-23T19:18:33.070Z,99441.97
2023-04-23T19:21:02.620Z,99441.13
2023-04-23T19:23:30.601Z,99440.31
2023-04-23T19:25:58.556Z,99444.91
2023-04-23T19:28:26.661Z,99440.56
2023-04-23T19:30:54.614Z,99447.81
2023-04-23T19:33:22.568Z,99445.97
2023-04-23T19:35:50.946Z,99443.50
2023-04-23T19:38:20.246Z,99442.69
2023-04-23T19:40:48.227Z,99443.72
2023-04-23T19:43:16.165Z,99438.31
2023-04-23T19:45:44.124Z,99440.22
2023-04-23T19:48:12.213Z,99442.91
2023-04-23T19:50:40.178Z,99445.88
2023-04-23T19:53:08.187Z,99444.81
2023-04-23T19:55:37.550Z,99440.47
2023-04-23T19:58:06.666Z,99436.09
2023-04-23T20:00:39.310Z,99438.81
2023-04-23T20:03:08.226Z,99435.88
2023-04-23T20:05:36.362Z,99440.47
2023-04-23T20:08:11.385Z,99434.00
2023-04-23T20:10:40.888Z,99436.69
2023-04-23T20:13:08.948Z,99432.09
2023-04-23T20:15:36.952Z,99431.28
2023-04-23T20:18:05.126Z,99430.22
2023-04-23T20:20:33.989Z,99434.81
2023-04-23T20:23:01.967Z,99432.09
2023-04-23T20:25:29.990Z,99431.28
2023-04-23T20:27:59.378Z,99436.69
2023-04-23T20:30:27.330Z,99435.06
2023-04-23T20:32:55.402Z,99434.25
2023-04-23T20:35:24.555Z,99438.81
2023-04-23T20:37:54.488Z,99430.69
2023-04-23T20:40:22.809Z,99432.59
2023-04-23T20:42:52.759Z,99430.16
2023-04-23T20:45:22.487Z,99433.66
2023-04-23T20:47:51.373Z,99425.78
2023-04-23T20:50:19.525Z,99436.59
2023-04-23T20:52:47.607Z,99434.72
2023-04-23T20:55:15.658Z,99432.84
2023-04-23T20:57:43.660Z,99424.16
2023-04-23T21:00:14.280Z,99421.47
2023-04-23T21:02:43.685Z,99426.88
2023-04-23T21:05:12.251Z,99431.19
2023-04-23T21:07:40.625Z,99426.06
2023-04-23T21:10:09.133Z,99421.47
2023-04-23T21:12:37.229Z,99424.75
2023-04-23T21:15:05.990Z,99423.09
2023-04-23T21:17:34.000Z,99410.38
2023-04-23T21:20:04.904Z,99424.75
2023-04-23T21:22:33.010Z,99416.63
2023-04-23T21:25:00.990Z,99413.94
2023-04-23T21:27:28.946Z,99424.75
2023-04-23T21:29:57.624Z,99416.63
2023-04-23T21:32:25.671Z,99415.78
2023-04-23T21:34:53.780Z,99421.47
2023-04-23T21:37:23.320Z,99421.47
2023-04-23T21:39:51.313Z,99425.22
2023-04-23T21:42:19.283Z,99418.75
2023-04-23T21:44:47.202Z,99414.41
2023-04-23T21:47:15.539Z,99415.47
2023-04-23T21:49:43.872Z,99408.44
2023-04-23T21:52:12.183Z,99404.91
2023-04-23T21:54:41.558Z,99389.53
2023-04-23T21:57:09.573Z,99400.34
2023-04-23T21:59:37.550Z,99391.66
2023-04-23T22:02:05.733Z,99396.78
2023-04-23T22:04:33.966Z,99397.03
2023-04-23T22:07:03.522Z,99397.03
2023-04-23T22:09:31.592Z,99398.69
2023-04-23T22:12:02.785Z,99396.22
2023-04-23T22:14:31.160Z,99392.47
2023-04-23T22:16:59.545Z,99395.97
2023-04-23T22:19:27.645Z,99392.47
2023-04-23T22:21:55.764Z,99389.53
2023-04-23T22:24:23.845Z,99395.75
2023-04-23T22:26:51.858Z,99394.09
2023-04-23T22:29:21.329Z,99394.94
2023-04-23T22:31:49.330Z,99387.06
2023-04-23T22:34:19.378Z,99399.50
2023-04-23T22:36:47.563Z,99399.50
2023-04-23T22:39:15.470Z,99401.38
2023-04-23T22:41:43.562Z,99397.03
2023-04-23T22:44:11.568Z,99391.66
2023-04-23T22:46:41.000Z,99387.28
2023-04-23T22:49:11.172Z,99389.97
2023-04-23T22:51:39.723Z,99378.38
2023-04-23T22:54:07.789Z,99378.38
2023-04-23T22:56:35.893Z,99383.78
2023-04-23T22:59:05.042Z,99371.06
2023-04-23T23:01:33.237Z,99370.53
2023-04-23T23:04:02.647Z,99365.13
2023-04-23T23:06:30.636Z,99362.66
2023-04-23T23:08:58.750Z,99369.94
2023-04-23T23:11:28.728Z,99375.34
2023-04-23T23:13:57.358Z,99388.84
2023-04-23T23:16:25.640Z,99377.44
2023-04-23T23:18:53.983Z,99369.31
2023-04-23T23:21:23.463Z,99372.03
2023-04-23T23:23:54.516Z,99357.69
2023-04-23T23:26:23.997Z,99363.09
2023-04-23T23:28:51.921Z,99353.13
2023-04-23T23:31:19.937Z,99358.50
2023-04-23T23:33:48.013Z,99360.41
2023-04-23T23:36:16.051Z,99357.69
2023-04-23T23:38:45.471Z,99349.81
2023-04-23T23:41:13.477Z,99351.47
2023-04-23T23:43:42.924Z,99360.63
2023-04-23T23:46:11.255Z,99353.59
2023-04-23T23:48:39.287Z,99354.41
2023-04-23T23:51:07.401Z,99351.97
2023-04-23T23:53:35.278Z,99359.00
2023-04-23T23:56:05.094Z,99357.38
2023-04-23T23:58:38.041Z,99361.13
